• Join FlightAware (Why Join?)
  • Login
  • US Flag 
12:32PM EST


 

Airport Tracker/Info


-or-


 

Live Flight TrackerFlight Track Log ✈ USC110 ✈ 23-Jul-2013 ✈ KCLT - KLCK

Flight Track Log - Related Links

Times and Time Zones

All times are in EDT time to prevent confusion due to time zone crossing. See the USC110 flight status page for this flight to view local times or setup timezone preferences in your user account.

Time Position Orientation Groundspeed Altitude Reporting Facility
EDT Latitude Longitude Course Direction KTS MPH feet Rate Location/Type
12:22AM 35.2161 -80.9475 259° West 69 79 1,400  Level Atlanta Center
12:22AM 35.2144 -80.9578 259° West 105 121 2,100 1,200 Climbing Atlanta Center
12:23AM 35.2353 -80.9569 North 111 128 2,900 1,320 Climbing Atlanta Center
12:24AM 35.2644 -80.9633 350° North 103 119 4,400 1,320 Climbing Atlanta Center
12:25AM 35.2919 -80.9778 337° Northwest 100 115 5,600 1,140 Climbing Atlanta Center
12:26AM 35.3194 -80.9944 334° Northwest 106 122 6,800 900 Climbing Atlanta Center
12:28AM 35.3681 -81.0156 340° North 138 159 8,100 480 Climbing Atlanta Center
12:29AM 35.4164 -81.0292 347° North 149 171 8,100  Level Atlanta Center
12:30AM 35.4608 -81.0506 339° North 163 188 8,100  Level Atlanta Center
12:31AM 35.5050 -81.0692 341° North 169 194 8,100  Level Atlanta Center
12:32AM 35.5472 -81.0856 342° North 169 194 8,100  Level Atlanta Center
12:33AM 35.5914 -81.1044 341° North 169 194 8,100  Level Atlanta Center
12:34AM 35.6356 -81.1208 343° North 169 194 8,100 -60 Level Atlanta Center
12:35AM 35.6797 -81.1369 343° North 169 194 8,000  Descending Atlanta Center
12:36AM 35.7200 -81.1561 339° North 164 189 8,100  Climbing Atlanta Center
12:37AM 35.7619 -81.1750 340° North 164 189 8,100  Level Atlanta Center
12:38AM 35.8061 -81.1914 343° North 159 183 8,100  Level Atlanta Center
12:39AM 35.8483 -81.2078 343° North 159 183 8,100  Level Atlanta Center
12:40AM 35.8906 -81.2269 340° North 159 183 8,100  Level Atlanta Center
12:41AM 35.9325 -81.2461 340° North 159 183 8,100  Level Atlanta Center
12:42AM 35.9747 -81.2625 343° North 159 183 8,100  Level Atlanta Center
12:43AM 36.0169 -81.2792 342° North 154 177 8,100  Level Atlanta Center
12:44AM 36.0589 -81.2956 342° North 154 177 8,100  Level Atlanta Center
12:45AM 36.0947 -81.3125 339° North 154 177 8,100  Level Atlanta Center
12:46AM 36.1411 -81.3314 342° North 154 177 8,100  Level Atlanta Center
12:47AM 36.1811 -81.3456 344° North 154 177 8,100  Level Atlanta Center
12:48AM 36.2253 -81.3644 341° North 154 177 8,100 -60 Level Atlanta Center
12:49AM 36.2694 -81.3811 343° North 160 184 8,000  Descending Atlanta Center
12:50AM 36.3114 -81.3978 342° North 160 184 8,100  Climbing Atlanta Center
12:51AM 36.3578 -81.4169 342° North 167 192 8,000 -60 Descending Atlanta Center
12:52AM 36.4061 -81.4386 340° North 172 198 8,000  Level Atlanta Center
12:53AM 36.4461 -81.4553 341° North 172 198 8,000  Level Atlanta Center
12:54AM 36.4883 -81.4747 340° North 167 192 8,000  Level Atlanta Center
12:55AM 36.5281 -81.4914 341° North 167 192 8,000  Level Atlanta Center
12:57AM 36.6100 -81.5228 343° North 155 178 8,000  Level Indianapolis Center
12:58AM 36.6500 -81.5397 341° North 154 177 8,000  Level Indianapolis Center
12:59AM 36.6897 -81.5564 341° North 150 173 8,000  Level Indianapolis Center
01:00AM 36.7292 -81.5733 342° North 151 174 8,000  Level Indianapolis Center
01:01AM 36.7603 -81.5863 341° North  Level FlightAware Approximate
01:02AM 36.8150 -81.6094 341° North 160 184 8,000  Level Indianapolis Center
01:03AM 36.8567 -81.6269 341° North 160 184 8,000  Level Indianapolis Center
01:04AM 36.8997 -81.6456 341° North 161 185 8,000  Level Indianapolis Center
01:06AM 36.9875 -81.6814 342° North 164 189 8,000  Level Indianapolis Center
01:08AM 37.0452 -81.7075 341° North  Level FlightAware Approximate
01:08AM 37.0736 -81.7192 341° North 162 186 8,000  Level Indianapolis Center
01:09AM 37.0859 -81.7246 342° North  Level FlightAware Approximate
01:09AM 37.1150 -81.7369 341° North 158 182 8,000  Level Indianapolis Center
01:10AM 37.1267 -81.7416 342° North  Level FlightAware Approximate
01:10AM 37.1583 -81.7550 342° North 162 186 8,000  Level Indianapolis Center
01:11AM 37.1675 -81.7585 342° North  Level FlightAware Approximate
01:11AM 37.1994 -81.7725 341° North 158 182 8,000  Level Indianapolis Center
01:12AM 37.2084 -81.7755 342° North  Level FlightAware Approximate
01:12AM 37.2414 -81.7903 341° North 159 183 8,000  Level Indianapolis Center
01:13AM 37.2828 -81.8081 341° North 157 181 8,000  Level Indianapolis Center
01:14AM 37.3261 -81.8267 341° North 161 185 8,000  Level Indianapolis Center
01:15AM 37.3689 -81.8450 341° North 162 186 8,000  Level Indianapolis Center
01:16AM 37.4111 -81.8617 343° North 158 182 8,000  Level Indianapolis Center
01:17AM 37.4528 -81.8808 340° North 159 183 8,000  Level Indianapolis Center
01:18AM 37.4950 -81.8989 341° North 161 185 8,000  Level Indianapolis Center
01:19AM 37.5444 -81.9197 342° North 160 184 8,000  Level Indianapolis Center
01:20AM 37.5858 -81.9375 341° North 157 181 8,000  Level Indianapolis Center
01:21AM 37.6283 -81.9558 341° North 159 183 8,000  Level Indianapolis Center
01:22AM 37.6700 -81.9739 341° North 158 182 8,100  Climbing Indianapolis Center
01:23AM 37.7111 -81.9917 341° North 156 180 8,100  Level Indianapolis Center
01:24AM 37.7519 -82.0100 340° North 155 178 8,100  Level Indianapolis Center
01:25AM 37.7944 -82.0283 341° North 159 183 8,100  Level Indianapolis Center
01:26AM 37.8350 -82.0453 342° North 154 177 8,100 -60 Level Indianapolis Center
01:27AM 37.8778 -82.0642 341° North 161 185 8,000 -60 Descending Indianapolis Center
01:28AM 37.9206 -82.0819 342° North 163 188 8,000  Level Indianapolis Center
01:29AM 37.9614 -82.1006 340° North 157 181 8,000  Level Indianapolis Center
01:30AM 38.0039 -82.1189 341° North 160 184 8,000  Level Indianapolis Center
01:31AM 38.0461 -82.1353 343° North 160 184 8,000  Level Indianapolis Center
01:32AM 38.0881 -82.1558 339° North 160 184 8,000  Level Indianapolis Center
01:33AM 38.1300 -82.1747 340° North 160 184 8,000  Level Indianapolis Center
01:34AM 38.1717 -82.1928 341° North 158 182 8,000  Level Indianapolis Center
01:35AM 38.2139 -82.2117 341° North 161 185 8,000  Level Indianapolis Center
01:36AM 38.2567 -82.2294 342° North 161 185 8,000  Level Indianapolis Center
01:37AM 38.2997 -82.2467 343° North 162 186 8,000  Level Indianapolis Center
01:38AM 38.3431 -82.2664 340° North 163 188 8,000  Level Indianapolis Center
01:39AM 38.3853 -82.2847 341° North 163 188 8,000  Level Indianapolis Center
01:40AM 38.4278 -82.3031 341° North 160 184 8,000  Level Indianapolis Center
01:41AM 38.4694 -82.3222 340° North 159 183 8,000  Level Indianapolis Center
01:42AM 38.5131 -82.3417 341° North 164 189 8,000  Level Indianapolis Center
01:43AM 38.5542 -82.3608 340° North 158 182 8,000  Level Indianapolis Center
01:44AM 38.5964 -82.3789 342° North 158 182 8,000  Level Indianapolis Center
01:45AM 38.6383 -82.3969 341° North 160 184 8,000  Level Indianapolis Center
01:46AM 38.6800 -82.4153 341° North 158 182 8,000  Level Indianapolis Center
01:47AM 38.7219 -82.4344 340° North 160 184 8,000  Level Indianapolis Center
01:48AM 38.7631 -82.4531 341° North 157 181 8,000  Level Indianapolis Center
01:49AM 38.8064 -82.4717 341° North 162 186 8,000  Level Indianapolis Center
01:50AM 38.8492 -82.4900 342° North 161 185 8,000  Level Indianapolis Center
01:51AM 38.8911 -82.5097 340° North 160 184 8,000  Level Indianapolis Center
01:52AM 38.9336 -82.5286 341° North 162 186 8,000  Level Indianapolis Center
01:53AM 38.9758 -82.5478 341° North 162 186 8,000  Level Indianapolis Center
01:54AM 39.0178 -82.5658 342° North 160 184 8,000  Level Indianapolis Center
01:55AM 39.0597 -82.5853 340° North 160 184 8,000  Level Indianapolis Center
01:56AM 39.1014 -82.6042 341° North 158 182 8,000  Level Indianapolis Center
01:57AM 39.1422 -82.6228 341° North 155 178 8,000  Level Indianapolis Center
01:58AM 39.1878 -82.6428 341° North 153 176 8,000  Level Indianapolis Center
01:59AM 39.2297 -82.6611 341° North 156 180 8,000  Level Indianapolis Center
02:00AM 39.2711 -82.6800 341° North 157 181 8,000  Level Indianapolis Center
02:01AM 39.3114 -82.6981 341° North 153 176 8,000  Level Indianapolis Center
02:02AM 39.3522 -82.7164 341° North 153 176 8,000  Level Indianapolis Center
02:03AM 39.3742 -82.7292 336° Northwest 155 178 8,000  Level Indianapolis Center
02:04AM 39.4286 -82.7539 341° North 155 178 8,000  Level Indianapolis Center
02:05AM 39.4692 -82.7711 342° North 154 177 8,000  Level Indianapolis Center
02:06AM 39.5094 -82.7883 342° North 154 177 8,000 -300 Level Indianapolis Center
02:07AM 39.5489 -82.7944 353° North 171 197 7,500 -900 Descending Indianapolis Center
02:08AM 39.5975 -82.7669 24° Northeast 196 226 6,300 -1,200 Descending Indianapolis Center
02:09AM 39.6458 -82.7447 19° North 186 214 5,100 -1,200 Descending Indianapolis Center
02:10AM 39.6956 -82.7306 12° North 182 209 3,900 -1,080 Descending Indianapolis Center
02:11AM 39.7439 -82.7083 19° North 185 213 3,000 -480 Descending Indianapolis Center
02:12AM 39.7911 -82.6967 11° North 165 190 3,000  Level Indianapolis Center
02:13AM 39.8364 -82.7064 351° North 162 186 3,000  Level Indianapolis Center
02:14AM 39.8822 -82.7108 356° North 167 192 3,100  Climbing Indianapolis Center
02:15AM 39.9144 -82.7486 318° Northwest 158 182 3,000  Descending Indianapolis Center
02:16AM 39.9047 -82.8072 258° West 158 182 3,100 -360 Climbing Indianapolis Center
02:17AM 39.8692 -82.8506 223° Southwest 177 204 2,300 -900 Descending Indianapolis Center
02:18AM 39.8406 -82.8936 229° Southwest 170 196 1,200 -600 Descending Indianapolis Center
02:19AM 39.8114 -82.9369 229° Southwest 169 194 1,100 -120 Descending Indianapolis Center